sensor_id;sensor_type;location;lat;lon;timestamp;P1;durP1;ratioP1;P2;durP2;ratioP2
64791;SDS011;51226;47.504;19.074;2023-02-22T00:01:19;4.32;;;3.55;;
64791;SDS011;51226;47.504;19.074;2023-02-22T00:04:53;4.32;;;3.80;;
64791;SDS011;51226;47.504;19.074;2023-02-22T00:07:56;4.18;;;3.55;;
64791;SDS011;51226;47.504;19.074;2023-02-22T00:11:01;4.78;;;3.92;;
64791;SDS011;51226;47.504;19.074;2023-02-22T00:14:04;4.25;;;3.60;;
64791;SDS011;51226;47.504;19.074;2023-02-22T00:17:08;4.15;;;3.75;;
64791;SDS011;51226;47.504;19.074;2023-02-22T00:20:11;4.97;;;3.62;;
64791;SDS011;51226;47.504;19.074;2023-02-22T00:23:16;5.87;;;4.00;;
64791;SDS011;51226;47.504;19.074;2023-02-22T00:26:22;4.68;;;3.95;;
64791;SDS011;51226;47.504;19.074;2023-02-22T00:29:25;4.95;;;4.00;;
64791;SDS011;51226;47.504;19.074;2023-02-22T00:32:27;4.90;;;3.92;;
64791;SDS011;51226;47.504;19.074;2023-02-22T00:35:31;5.65;;;3.97;;
64791;SDS011;51226;47.504;19.074;2023-02-22T00:38:34;4.10;;;3.62;;
64791;SDS011;51226;47.504;19.074;2023-02-22T00:44:39;4.32;;;3.65;;
64791;SDS011;51226;47.504;19.074;2023-02-22T00:47:43;4.72;;;3.72;;
64791;SDS011;51226;47.504;19.074;2023-02-22T00:50:49;5.22;;;4.70;;
64791;SDS011;51226;47.504;19.074;2023-02-22T00:53:52;5.95;;;4.37;;
64791;SDS011;51226;47.504;19.074;2023-02-22T00:56:54;4.65;;;4.12;;
64791;SDS011;51226;47.504;19.074;2023-02-22T01:00:03;4.80;;;4.40;;
64791;SDS011;51226;47.504;19.074;2023-02-22T01:03:13;5.50;;;4.90;;
64791;SDS011;51226;47.504;19.074;2023-02-22T01:06:19;5.97;;;4.95;;
64791;SDS011;51226;47.504;19.074;2023-02-22T01:12:26;6.07;;;4.47;;
64791;SDS011;51226;47.504;19.074;2023-02-22T01:15:29;6.45;;;4.87;;
64791;SDS011;51226;47.504;19.074;2023-02-22T01:18:33;5.70;;;4.55;;
64791;SDS011;51226;47.504;19.074;2023-02-22T01:21:38;4.45;;;3.80;;
64791;SDS011;51226;47.504;19.074;2023-02-22T01:24:42;4.60;;;4.18;;
64791;SDS011;51226;47.504;19.074;2023-02-22T01:27:44;4.60;;;4.20;;
64791;SDS011;51226;47.504;19.074;2023-02-22T01:30:48;4.93;;;4.50;;
64791;SDS011;51226;47.504;19.074;2023-02-22T01:33:51;5.40;;;4.72;;
64791;SDS011;51226;47.504;19.074;2023-02-22T01:36:54;5.40;;;4.90;;
64791;SDS011;51226;47.504;19.074;2023-02-22T01:43:01;5.60;;;4.20;;
64791;SDS011;51226;47.504;19.074;2023-02-22T01:46:25;6.75;;;4.10;;
64791;SDS011;51226;47.504;19.074;2023-02-22T01:49:34;5.37;;;4.82;;
64791;SDS011;51226;47.504;19.074;2023-02-22T01:52:43;5.22;;;4.28;;
64791;SDS011;51226;47.504;19.074;2023-02-22T01:55:46;6.00;;;5.18;;
64791;SDS011;51226;47.504;19.074;2023-02-22T01:58:51;4.95;;;4.30;;
64791;SDS011;51226;47.504;19.074;2023-02-22T02:01:58;5.68;;;4.53;;
64791;SDS011;51226;47.504;19.074;2023-02-22T02:05:02;6.15;;;5.03;;
64791;SDS011;51226;47.504;19.074;2023-02-22T02:08:13;5.07;;;4.57;;
64791;SDS011;51226;47.504;19.074;2023-02-22T02:11:23;5.15;;;4.53;;
64791;SDS011;51226;47.504;19.074;2023-02-22T02:14:27;5.93;;;4.57;;
64791;SDS011;51226;47.504;19.074;2023-02-22T02:17:33;5.70;;;5.12;;
64791;SDS011;51226;47.504;19.074;2023-02-22T02:23:56;6.22;;;4.55;;
64791;SDS011;51226;47.504;19.074;2023-02-22T02:27:11;5.60;;;4.90;;
64791;SDS011;51226;47.504;19.074;2023-02-22T02:33:45;5.20;;;4.70;;
64791;SDS011;51226;47.504;19.074;2023-02-22T02:37:08;6.03;;;4.78;;
64791;SDS011;51226;47.504;19.074;2023-02-22T02:40:22;5.47;;;4.57;;
64791;SDS011;51226;47.504;19.074;2023-02-22T02:46:55;4.65;;;4.25;;
64791;SDS011;51226;47.504;19.074;2023-02-22T02:53:35;5.30;;;4.80;;
64791;SDS011;51226;47.504;19.074;2023-02-22T02:56:41;5.65;;;4.70;;
64791;SDS011;51226;47.504;19.074;2023-02-22T02:59:47;4.60;;;4.20;;
64791;SDS011;51226;47.504;19.074;2023-02-22T03:10:14;5.78;;;4.78;;
64791;SDS011;51226;47.504;19.074;2023-02-22T03:13:38;6.12;;;4.78;;
64791;SDS011;51226;47.504;19.074;2023-02-22T03:16:44;6.25;;;4.62;;
64791;SDS011;51226;47.504;19.074;2023-02-22T03:19:57;6.53;;;4.75;;
64791;SDS011;51226;47.504;19.074;2023-02-22T03:23:06;6.00;;;5.40;;
64791;SDS011;51226;47.504;19.074;2023-02-22T03:26:21;6.28;;;5.20;;
64791;SDS011;51226;47.504;19.074;2023-02-22T03:29:30;5.72;;;4.70;;
64791;SDS011;51226;47.504;19.074;2023-02-22T03:32:38;5.85;;;4.68;;
64791;SDS011;51226;47.504;19.074;2023-02-22T03:35:47;6.35;;;5.25;;
64791;SDS011;51226;47.504;19.074;2023-02-22T03:38:58;5.57;;;4.72;;
64791;SDS011;51226;47.504;19.074;2023-02-22T03:42:11;6.45;;;5.20;;
64791;SDS011;51226;47.504;19.074;2023-02-22T03:45:19;5.67;;;4.90;;
64791;SDS011;51226;47.504;19.074;2023-02-22T03:51:51;6.12;;;5.03;;
64791;SDS011;51226;47.504;19.074;2023-02-22T03:54:54;6.25;;;4.82;;
64791;SDS011;51226;47.504;19.074;2023-02-22T03:57:58;6.28;;;5.32;;
64791;SDS011;51226;47.504;19.074;2023-02-22T04:01:04;5.40;;;4.87;;
64791;SDS011;51226;47.504;19.074;2023-02-22T04:07:11;6.20;;;5.53;;
64791;SDS011;51226;47.504;19.074;2023-02-22T04:10:15;6.10;;;5.50;;
64791;SDS011;51226;47.504;19.074;2023-02-22T04:13:18;9.93;;;5.78;;
64791;SDS011;51226;47.504;19.074;2023-02-22T04:16:22;6.32;;;5.30;;
64791;SDS011;51226;47.504;19.074;2023-02-22T04:19:25;6.07;;;5.18;;
64791;SDS011;51226;47.504;19.074;2023-02-22T04:22:28;6.15;;;5.57;;
64791;SDS011;51226;47.504;19.074;2023-02-22T04:25:31;6.57;;;5.53;;
64791;SDS011;51226;47.504;19.074;2023-02-22T04:28:39;6.93;;;5.45;;
64791;SDS011;51226;47.504;19.074;2023-02-22T04:31:42;8.10;;;5.45;;
64791;SDS011;51226;47.504;19.074;2023-02-22T04:34:46;6.20;;;5.60;;
64791;SDS011;51226;47.504;19.074;2023-02-22T04:37:49;6.93;;;5.75;;
64791;SDS011;51226;47.504;19.074;2023-02-22T04:40:53;5.87;;;5.20;;
64791;SDS011;51226;47.504;19.074;2023-02-22T04:43:56;6.75;;;5.72;;
64791;SDS011;51226;47.504;19.074;2023-02-22T04:47:00;6.55;;;5.57;;
64791;SDS011;51226;47.504;19.074;2023-02-22T04:50:06;6.12;;;5.53;;
64791;SDS011;51226;47.504;19.074;2023-02-22T04:53:10;6.15;;;5.55;;
64791;SDS011;51226;47.504;19.074;2023-02-22T04:56:15;7.07;;;6.18;;
64791;SDS011;51226;47.504;19.074;2023-02-22T04:59:20;8.80;;;6.72;;
64791;SDS011;51226;47.504;19.074;2023-02-22T05:02:26;7.30;;;5.87;;
64791;SDS011;51226;47.504;19.074;2023-02-22T05:08:32;7.97;;;6.37;;
64791;SDS011;51226;47.504;19.074;2023-02-22T05:11:35;8.60;;;6.70;;
64791;SDS011;51226;47.504;19.074;2023-02-22T05:14:38;7.62;;;6.65;;
64791;SDS011;51226;47.504;19.074;2023-02-22T05:17:41;7.62;;;6.82;;
64791;SDS011;51226;47.504;19.074;2023-02-22T05:20:44;7.70;;;6.90;;
64791;SDS011;51226;47.504;19.074;2023-02-22T05:23:47;8.77;;;6.50;;
64791;SDS011;51226;47.504;19.074;2023-02-22T05:26:49;7.63;;;6.87;;
64791;SDS011;51226;47.504;19.074;2023-02-22T05:29:55;9.13;;;6.28;;
64791;SDS011;51226;47.504;19.074;2023-02-22T05:32:58;8.07;;;7.13;;
64791;SDS011;51226;47.504;19.074;2023-02-22T05:36:02;7.50;;;6.65;;
64791;SDS011;51226;47.504;19.074;2023-02-22T05:39:05;7.95;;;6.80;;
64791;SDS011;51226;47.504;19.074;2023-02-22T05:45:13;8.48;;;6.80;;
64791;SDS011;51226;47.504;19.074;2023-02-22T05:48:18;8.00;;;7.20;;
64791;SDS011;51226;47.504;19.074;2023-02-22T05:51:23;13.35;;;7.55;;
64791;SDS011;51226;47.504;19.074;2023-02-22T05:54:26;9.32;;;7.53;;
64791;SDS011;51226;47.504;19.074;2023-02-22T05:57:29;9.60;;;7.90;;
64791;SDS011;51226;47.504;19.074;2023-02-22T06:00:32;9.85;;;8.13;;
64791;SDS011;51226;47.504;19.074;2023-02-22T06:03:35;9.95;;;7.80;;
64791;SDS011;51226;47.504;19.074;2023-02-22T06:06:38;10.18;;;8.35;;
64791;SDS011;51226;47.504;19.074;2023-02-22T06:09:41;12.35;;;8.30;;
64791;SDS011;51226;47.504;19.074;2023-02-22T06:12:44;8.65;;;7.75;;
64791;SDS011;51226;47.504;19.074;2023-02-22T06:15:48;9.23;;;7.62;;
64791;SDS011;51226;47.504;19.074;2023-02-22T06:18:51;10.75;;;7.72;;
64791;SDS011;51226;47.504;19.074;2023-02-22T06:21:56;10.70;;;8.45;;
64791;SDS011;51226;47.504;19.074;2023-02-22T06:25:02;11.50;;;8.82;;
64791;SDS011;51226;47.504;19.074;2023-02-22T06:28:05;12.55;;;8.27;;
64791;SDS011;51226;47.504;19.074;2023-02-22T06:31:11;12.23;;;8.27;;
64791;SDS011;51226;47.504;19.074;2023-02-22T06:34:14;11.77;;;8.90;;
64791;SDS011;51226;47.504;19.074;2023-02-22T06:37:17;13.88;;;10.75;;
64791;SDS011;51226;47.504;19.074;2023-02-22T06:40:20;19.85;;;12.10;;
64791;SDS011;51226;47.504;19.074;2023-02-22T06:43:23;9.90;;;8.55;;
64791;SDS011;51226;47.504;19.074;2023-02-22T06:46:27;11.98;;;8.70;;
64791;SDS011;51226;47.504;19.074;2023-02-22T06:49:30;10.02;;;7.90;;
64791;SDS011;51226;47.504;19.074;2023-02-22T06:52:33;9.68;;;7.72;;
64791;SDS011;51226;47.504;19.074;2023-02-22T06:55:35;9.45;;;7.80;;
64791;SDS011;51226;47.504;19.074;2023-02-22T06:58:38;12.70;;;7.85;;
64791;SDS011;51226;47.504;19.074;2023-02-22T07:01:42;15.57;;;9.10;;
64791;SDS011;51226;47.504;19.074;2023-02-22T07:04:45;9.98;;;7.78;;
64791;SDS011;51226;47.504;19.074;2023-02-22T07:07:48;12.73;;;8.60;;
64791;SDS011;51226;47.504;19.074;2023-02-22T07:10:52;18.48;;;15.73;;
64791;SDS011;51226;47.504;19.074;2023-02-22T07:13:55;27.37;;;19.42;;
64791;SDS011;51226;47.504;19.074;2023-02-22T07:16:58;14.02;;;11.43;;
64791;SDS011;51226;47.504;19.074;2023-02-22T07:20:01;9.90;;;8.73;;
64791;SDS011;51226;47.504;19.074;2023-02-22T07:23:04;10.88;;;8.68;;
64791;SDS011;51226;47.504;19.074;2023-02-22T07:26:07;7.85;;;7.15;;
64791;SDS011;51226;47.504;19.074;2023-02-22T07:29:10;9.15;;;8.25;;
64791;SDS011;51226;47.504;19.074;2023-02-22T07:32:13;8.13;;;7.43;;
64791;SDS011;51226;47.504;19.074;2023-02-22T07:35:17;9.63;;;7.37;;
64791;SDS011;51226;47.504;19.074;2023-02-22T07:38:21;10.25;;;8.07;;
64791;SDS011;51226;47.504;19.074;2023-02-22T07:41:24;8.18;;;7.32;;
64791;SDS011;51226;47.504;19.074;2023-02-22T07:44:27;9.73;;;7.87;;
64791;SDS011;51226;47.504;19.074;2023-02-22T07:47:30;9.32;;;7.15;;
64791;SDS011;51226;47.504;19.074;2023-02-22T07:50:33;9.98;;;7.68;;
64791;SDS011;51226;47.504;19.074;2023-02-22T07:53:37;7.80;;;7.00;;
64791;SDS011;51226;47.504;19.074;2023-02-22T07:56:46;7.30;;;6.70;;
64791;SDS011;51226;47.504;19.074;2023-02-22T07:59:50;7.65;;;6.97;;
64791;SDS011;51226;47.504;19.074;2023-02-22T08:02:53;18.35;;;15.20;;
64791;SDS011;51226;47.504;19.074;2023-02-22T08:05:56;7.65;;;6.87;;
64791;SDS011;51226;47.504;19.074;2023-02-22T08:09:02;8.13;;;5.87;;
64791;SDS011;51226;47.504;19.074;2023-02-22T08:12:05;5.93;;;5.32;;
64791;SDS011;51226;47.504;19.074;2023-02-22T08:15:09;5.45;;;4.95;;
64791;SDS011;51226;47.504;19.074;2023-02-22T08:18:19;7.22;;;4.70;;
64791;SDS011;51226;47.504;19.074;2023-02-22T08:21:23;6.25;;;5.50;;
64791;SDS011;51226;47.504;19.074;2023-02-22T08:24:26;5.93;;;5.28;;
64791;SDS011;51226;47.504;19.074;2023-02-22T08:27:29;5.35;;;4.85;;
64791;SDS011;51226;47.504;19.074;2023-02-22T08:30:32;5.72;;;5.22;;
64791;SDS011;51226;47.504;19.074;2023-02-22T08:33:37;5.53;;;4.95;;
64791;SDS011;51226;47.504;19.074;2023-02-22T08:36:40;7.78;;;4.95;;
64791;SDS011;51226;47.504;19.074;2023-02-22T08:39:44;5.78;;;5.18;;
64791;SDS011;51226;47.504;19.074;2023-02-22T08:42:46;5.40;;;4.80;;
64791;SDS011;51226;47.504;19.074;2023-02-22T08:45:49;7.37;;;5.32;;
64791;SDS011;51226;47.504;19.074;2023-02-22T08:48:53;7.35;;;5.37;;
64791;SDS011;51226;47.504;19.074;2023-02-22T08:51:56;6.87;;;6.35;;
64791;SDS011;51226;47.504;19.074;2023-02-22T08:54:59;7.28;;;6.57;;
64791;SDS011;51226;47.504;19.074;2023-02-22T08:58:04;9.02;;;6.20;;
64791;SDS011;51226;47.504;19.074;2023-02-22T09:01:10;6.25;;;5.75;;
64791;SDS011;51226;47.504;19.074;2023-02-22T09:04:16;6.90;;;6.20;;
64791;SDS011;51226;47.504;19.074;2023-02-22T09:07:19;6.40;;;5.80;;
64791;SDS011;51226;47.504;19.074;2023-02-22T09:10:23;7.50;;;6.70;;
64791;SDS011;51226;47.504;19.074;2023-02-22T09:13:28;5.72;;;5.15;;
64791;SDS011;51226;47.504;19.074;2023-02-22T09:16:31;5.87;;;5.30;;
64791;SDS011;51226;47.504;19.074;2023-02-22T09:19:35;5.30;;;4.80;;
64791;SDS011;51226;47.504;19.074;2023-02-22T09:22:38;6.28;;;4.70;;
64791;SDS011;51226;47.504;19.074;2023-02-22T09:25:41;7.45;;;5.05;;
64791;SDS011;51226;47.504;19.074;2023-02-22T09:28:44;4.95;;;4.62;;
64791;SDS011;51226;47.504;19.074;2023-02-22T09:31:48;6.47;;;4.80;;
64791;SDS011;51226;47.504;19.074;2023-02-22T09:34:52;7.05;;;5.57;;
64791;SDS011;51226;47.504;19.074;2023-02-22T09:37:55;7.95;;;6.97;;
64791;SDS011;51226;47.504;19.074;2023-02-22T09:41:11;8.82;;;7.95;;
64791;SDS011;51226;47.504;19.074;2023-02-22T09:47:44;12.68;;;11.48;;
64791;SDS011;51226;47.504;19.074;2023-02-22T09:50:51;13.18;;;11.80;;
64791;SDS011;51226;47.504;19.074;2023-02-22T09:54:00;14.50;;;12.57;;
64791;SDS011;51226;47.504;19.074;2023-02-22T09:57:08;14.45;;;12.52;;
64791;SDS011;51226;47.504;19.074;2023-02-22T10:00:18;13.60;;;12.20;;
64791;SDS011;51226;47.504;19.074;2023-02-22T10:03:23;13.62;;;12.32;;
64791;SDS011;51226;47.504;19.074;2023-02-22T10:06:55;14.77;;;12.15;;
64791;SDS011;51226;47.504;19.074;2023-02-22T10:10:14;12.40;;;11.15;;
64791;SDS011;51226;47.504;19.074;2023-02-22T10:13:24;14.15;;;12.60;;
64791;SDS011;51226;47.504;19.074;2023-02-22T10:16:40;13.30;;;12.00;;
64791;SDS011;51226;47.504;19.074;2023-02-22T10:19:58;11.77;;;10.57;;
64791;SDS011;51226;47.504;19.074;2023-02-22T10:23:20;12.10;;;10.82;;
64791;SDS011;51226;47.504;19.074;2023-02-22T10:26:26;11.30;;;10.10;;
64791;SDS011;51226;47.504;19.074;2023-02-22T10:29:36;12.65;;;11.40;;
64791;SDS011;51226;47.504;19.074;2023-02-22T10:32:44;12.23;;;10.98;;
64791;SDS011;51226;47.504;19.074;2023-02-22T10:35:50;11.25;;;10.15;;
64791;SDS011;51226;47.504;19.074;2023-02-22T10:38:57;12.95;;;11.40;;
64791;SDS011;51226;47.504;19.074;2023-02-22T10:42:12;11.85;;;10.70;;
64791;SDS011;51226;47.504;19.074;2023-02-22T10:48:24;13.13;;;11.15;;
64791;SDS011;51226;47.504;19.074;2023-02-22T10:51:28;11.80;;;10.60;;
64791;SDS011;51226;47.504;19.074;2023-02-22T10:54:36;12.05;;;10.88;;
64791;SDS011;51226;47.504;19.074;2023-02-22T10:57:45;12.90;;;11.63;;
64791;SDS011;51226;47.504;19.074;2023-02-22T11:00:51;12.18;;;10.95;;
64791;SDS011;51226;47.504;19.074;2023-02-22T11:07:07;13.50;;;12.10;;
64791;SDS011;51226;47.504;19.074;2023-02-22T11:10:10;12.20;;;11.10;;
64791;SDS011;51226;47.504;19.074;2023-02-22T11:19:30;14.13;;;11.88;;
64791;SDS011;51226;47.504;19.074;2023-02-22T11:22:39;14.60;;;12.20;;
64791;SDS011;51226;47.504;19.074;2023-02-22T11:25:43;12.50;;;11.30;;
64791;SDS011;51226;47.504;19.074;2023-02-22T11:31:51;12.85;;;11.65;;
64791;SDS011;51226;47.504;19.074;2023-02-22T11:34:56;12.50;;;11.30;;
64791;SDS011;51226;47.504;19.074;2023-02-22T11:38:31;12.48;;;11.27;;
64791;SDS011;51226;47.504;19.074;2023-02-22T11:41:35;13.55;;;12.15;;
64791;SDS011;51226;47.504;19.074;2023-02-22T11:47:46;13.35;;;11.95;;
64791;SDS011;51226;47.504;19.074;2023-02-22T11:51:13;12.85;;;11.57;;
64791;SDS011;51226;47.504;19.074;2023-02-22T12:00:44;14.55;;;12.82;;
64791;SDS011;51226;47.504;19.074;2023-02-22T12:04:02;15.02;;;12.18;;
64791;SDS011;51226;47.504;19.074;2023-02-22T12:20:56;15.73;;;13.80;;
64791;SDS011;51226;47.504;19.074;2023-02-22T12:24:03;22.33;;;13.93;;
64791;SDS011;51226;47.504;19.074;2023-02-22T12:27:17;16.60;;;13.98;;
64791;SDS011;51226;47.504;19.074;2023-02-22T12:30:32;15.50;;;13.15;;
64791;SDS011;51226;47.504;19.074;2023-02-22T12:33:51;15.77;;;12.93;;
64791;SDS011;51226;47.504;19.074;2023-02-22T12:44:32;16.27;;;14.63;;
64791;SDS011;51226;47.504;19.074;2023-02-22T12:47:43;19.60;;;14.43;;
64791;SDS011;51226;47.504;19.074;2023-02-22T12:50:52;19.98;;;14.98;;
64791;SDS011;51226;47.504;19.074;2023-02-22T12:54:06;19.15;;;14.32;;
64791;SDS011;51226;47.504;19.074;2023-02-22T13:00:45;18.27;;;14.75;;
64791;SDS011;51226;47.504;19.074;2023-02-22T13:03:52;17.00;;;15.30;;
64791;SDS011;51226;47.504;19.074;2023-02-22T13:07:00;19.20;;;15.23;;
64791;SDS011;51226;47.504;19.074;2023-02-22T13:13:31;16.95;;;15.25;;
64791;SDS011;51226;47.504;19.074;2023-02-22T13:16:59;17.80;;;14.93;;
64791;SDS011;51226;47.504;19.074;2023-02-22T13:20:12;19.40;;;16.12;;
64791;SDS011;51226;47.504;19.074;2023-02-22T13:23:38;17.58;;;15.07;;
64791;SDS011;51226;47.504;19.074;2023-02-22T13:43:37;15.98;;;14.32;;
64791;SDS011;51226;47.504;19.074;2023-02-22T13:54:25;16.27;;;14.40;;
64791;SDS011;51226;47.504;19.074;2023-02-22T13:57:45;15.88;;;14.13;;
64791;SDS011;51226;47.504;19.074;2023-02-22T14:00:52;19.87;;;15.38;;
64791;SDS011;51226;47.504;19.074;2023-02-22T14:04:17;16.33;;;14.52;;
64791;SDS011;51226;47.504;19.074;2023-02-22T14:10:56;20.73;;;14.25;;
64791;SDS011;51226;47.504;19.074;2023-02-22T14:23:37;17.23;;;14.45;;
64791;SDS011;51226;47.504;19.074;2023-02-22T14:26:54;15.90;;;14.15;;
64791;SDS011;51226;47.504;19.074;2023-02-22T14:30:03;17.27;;;14.03;;
64791;SDS011;51226;47.504;19.074;2023-02-22T14:36:52;17.08;;;14.05;;
64791;SDS011;51226;47.504;19.074;2023-02-22T14:40:18;17.98;;;14.63;;
64791;SDS011;51226;47.504;19.074;2023-02-22T14:43:27;17.50;;;15.27;;
64791;SDS011;51226;47.504;19.074;2023-02-22T14:46:31;16.55;;;14.85;;
64791;SDS011;51226;47.504;19.074;2023-02-22T14:49:39;16.35;;;14.52;;
64791;SDS011;51226;47.504;19.074;2023-02-22T14:52:46;18.48;;;15.07;;
64791;SDS011;51226;47.504;19.074;2023-02-22T14:56:04;15.98;;;14.30;;
64791;SDS011;51226;47.504;19.074;2023-02-22T15:02:18;18.08;;;14.55;;
64791;SDS011;51226;47.504;19.074;2023-02-22T15:05:26;17.12;;;14.82;;
64791;SDS011;51226;47.504;19.074;2023-02-22T15:08:32;15.15;;;13.52;;
64791;SDS011;51226;47.504;19.074;2023-02-22T15:11:35;16.08;;;14.27;;
64791;SDS011;51226;47.504;19.074;2023-02-22T15:14:39;16.52;;;14.68;;
64791;SDS011;51226;47.504;19.074;2023-02-22T15:17:43;18.12;;;14.82;;
64791;SDS011;51226;47.504;19.074;2023-02-22T15:20:49;15.38;;;13.80;;
64791;SDS011;51226;47.504;19.074;2023-02-22T15:24:04;14.95;;;13.35;;
64791;SDS011;51226;47.504;19.074;2023-02-22T15:27:13;16.48;;;13.75;;
64791;SDS011;51226;47.504;19.074;2023-02-22T15:30:25;15.50;;;12.18;;
64791;SDS011;51226;47.504;19.074;2023-02-22T15:33:31;18.77;;;14.00;;
64791;SDS011;51226;47.504;19.074;2023-02-22T15:36:40;17.00;;;14.93;;
64791;SDS011;51226;47.504;19.074;2023-02-22T15:39:44;19.50;;;15.15;;
64791;SDS011;51226;47.504;19.074;2023-02-22T15:42:48;17.62;;;14.90;;
64791;SDS011;51226;47.504;19.074;2023-02-22T15:45:55;16.85;;;14.52;;
64791;SDS011;51226;47.504;19.074;2023-02-22T15:49:33;17.60;;;15.70;;
64791;SDS011;51226;47.504;19.074;2023-02-22T15:52:30;19.87;;;14.55;;
64791;SDS011;51226;47.504;19.074;2023-02-22T15:55:37;18.62;;;14.65;;
64791;SDS011;51226;47.504;19.074;2023-02-22T15:58:43;16.55;;;13.98;;
64791;SDS011;51226;47.504;19.074;2023-02-22T16:01:48;15.82;;;13.95;;
64791;SDS011;51226;47.504;19.074;2023-02-22T16:04:56;16.33;;;14.70;;
64791;SDS011;51226;47.504;19.074;2023-02-22T16:08:02;15.45;;;13.88;;
64791;SDS011;51226;47.504;19.074;2023-02-22T16:11:23;14.73;;;13.13;;
64791;SDS011;51226;47.504;19.074;2023-02-22T16:17:38;39.40;;;30.52;;
64791;SDS011;51226;47.504;19.074;2023-02-22T16:21:05;17.02;;;13.57;;
64791;SDS011;51226;47.504;19.074;2023-02-22T16:24:24;16.87;;;11.75;;
64791;SDS011;51226;47.504;19.074;2023-02-22T16:27:28;14.10;;;10.88;;
64791;SDS011;51226;47.504;19.074;2023-02-22T16:30:35;14.75;;;10.80;;
64791;SDS011;51226;47.504;19.074;2023-02-22T16:33:40;14.30;;;11.12;;
64791;SDS011;51226;47.504;19.074;2023-02-22T16:36:47;13.62;;;11.25;;
64791;SDS011;51226;47.504;19.074;2023-02-22T16:39:53;15.25;;;11.60;;
64791;SDS011;51226;47.504;19.074;2023-02-22T16:42:57;15.95;;;12.43;;
64791;SDS011;51226;47.504;19.074;2023-02-22T16:46:03;18.62;;;15.57;;
64791;SDS011;51226;47.504;19.074;2023-02-22T16:49:09;17.52;;;15.73;;
64791;SDS011;51226;47.504;19.074;2023-02-22T16:52:13;17.85;;;16.12;;
64791;SDS011;51226;47.504;19.074;2023-02-22T16:55:16;19.05;;;16.52;;
64791;SDS011;51226;47.504;19.074;2023-02-22T16:58:21;19.70;;;17.70;;
64791;SDS011;51226;47.504;19.074;2023-02-22T17:01:29;20.70;;;16.65;;
64791;SDS011;51226;47.504;19.074;2023-02-22T17:04:36;19.17;;;17.05;;
64791;SDS011;51226;47.504;19.074;2023-02-22T17:07:41;20.05;;;16.95;;
64791;SDS011;51226;47.504;19.074;2023-02-22T17:10:44;18.73;;;16.70;;
64791;SDS011;51226;47.504;19.074;2023-02-22T17:13:48;22.00;;;18.40;;
64791;SDS011;51226;47.504;19.074;2023-02-22T17:16:53;22.48;;;17.60;;
64791;SDS011;51226;47.504;19.074;2023-02-22T17:19:56;20.88;;;17.17;;
64791;SDS011;51226;47.504;19.074;2023-02-22T17:23:03;22.50;;;17.90;;
64791;SDS011;51226;47.504;19.074;2023-02-22T17:26:07;19.62;;;16.62;;
64791;SDS011;51226;47.504;19.074;2023-02-22T17:29:10;18.73;;;16.50;;
64791;SDS011;51226;47.504;19.074;2023-02-22T17:32:15;17.90;;;15.98;;
64791;SDS011;51226;47.504;19.074;2023-02-22T17:35:18;22.92;;;17.55;;
64791;SDS011;51226;47.504;19.074;2023-02-22T17:38:24;23.12;;;18.10;;
64791;SDS011;51226;47.504;19.074;2023-02-22T17:41:30;21.77;;;19.62;;
64791;SDS011;51226;47.504;19.074;2023-02-22T17:44:33;20.70;;;18.05;;
64791;SDS011;51226;47.504;19.074;2023-02-22T17:50:40;20.17;;;17.42;;
64791;SDS011;51226;47.504;19.074;2023-02-22T17:53:45;21.62;;;18.77;;
64791;SDS011;51226;47.504;19.074;2023-02-22T17:56:48;22.23;;;18.27;;
64791;SDS011;51226;47.504;19.074;2023-02-22T17:59:51;20.90;;;18.25;;
64791;SDS011;51226;47.504;19.074;2023-02-22T18:02:58;26.27;;;20.17;;
64791;SDS011;51226;47.504;19.074;2023-02-22T18:06:03;23.10;;;19.25;;
64791;SDS011;51226;47.504;19.074;2023-02-22T18:09:07;20.88;;;17.30;;
64791;SDS011;51226;47.504;19.074;2023-02-22T18:12:12;20.35;;;17.08;;
64791;SDS011;51226;47.504;19.074;2023-02-22T18:15:15;18.33;;;16.27;;
64791;SDS011;51226;47.504;19.074;2023-02-22T18:18:21;20.70;;;15.93;;
64791;SDS011;51226;47.504;19.074;2023-02-22T18:21:24;17.40;;;14.00;;
64791;SDS011;51226;47.504;19.074;2023-02-22T18:24:31;17.87;;;12.80;;
64791;SDS011;51226;47.504;19.074;2023-02-22T18:27:37;16.17;;;12.65;;
64791;SDS011;51226;47.504;19.074;2023-02-22T18:30:41;16.98;;;12.73;;
64791;SDS011;51226;47.504;19.074;2023-02-22T18:33:44;16.62;;;12.10;;
64791;SDS011;51226;47.504;19.074;2023-02-22T18:36:52;16.95;;;11.12;;
64791;SDS011;51226;47.504;19.074;2023-02-22T18:39:56;18.30;;;11.45;;
64791;SDS011;51226;47.504;19.074;2023-02-22T18:42:59;17.10;;;10.95;;
64791;SDS011;51226;47.504;19.074;2023-02-22T18:46:15;18.45;;;9.95;;
64791;SDS011;51226;47.504;19.074;2023-02-22T18:49:20;17.17;;;10.35;;
64791;SDS011;51226;47.504;19.074;2023-02-22T18:52:23;16.40;;;9.88;;
64791;SDS011;51226;47.504;19.074;2023-02-22T18:55:26;16.48;;;9.35;;
64791;SDS011;51226;47.504;19.074;2023-02-22T18:58:28;15.10;;;8.50;;
64791;SDS011;51226;47.504;19.074;2023-02-22T19:01:34;13.45;;;8.70;;
64791;SDS011;51226;47.504;19.074;2023-02-22T19:04:40;14.68;;;8.73;;
64791;SDS011;51226;47.504;19.074;2023-02-22T19:07:45;11.32;;;9.40;;
64791;SDS011;51226;47.504;19.074;2023-02-22T19:10:48;17.17;;;9.40;;
64791;SDS011;51226;47.504;19.074;2023-02-22T19:13:53;15.60;;;9.25;;
64791;SDS011;51226;47.504;19.074;2023-02-22T19:16:58;14.23;;;9.55;;
64791;SDS011;51226;47.504;19.074;2023-02-22T19:20:04;15.05;;;9.30;;
64791;SDS011;51226;47.504;19.074;2023-02-22T19:23:08;19.20;;;9.57;;
64791;SDS011;51226;47.504;19.074;2023-02-22T19:26:13;12.70;;;8.95;;
64791;SDS011;51226;47.504;19.074;2023-02-22T19:29:21;17.17;;;9.40;;
64791;SDS011;51226;47.504;19.074;2023-02-22T19:32:25;14.25;;;7.60;;
64791;SDS011;51226;47.504;19.074;2023-02-22T19:35:28;16.67;;;9.73;;
64791;SDS011;51226;47.504;19.074;2023-02-22T19:38:31;14.85;;;10.27;;
64791;SDS011;51226;47.504;19.074;2023-02-22T19:41:34;14.70;;;9.80;;
64791;SDS011;51226;47.504;19.074;2023-02-22T19:44:38;14.55;;;10.13;;
64791;SDS011;51226;47.504;19.074;2023-02-22T19:47:41;15.18;;;10.30;;
64791;SDS011;51226;47.504;19.074;2023-02-22T19:53:50;19.12;;;10.20;;
64791;SDS011;51226;47.504;19.074;2023-02-22T19:56:54;16.73;;;9.68;;
64791;SDS011;51226;47.504;19.074;2023-02-22T19:59:59;20.75;;;10.55;;
64791;SDS011;51226;47.504;19.074;2023-02-22T20:03:12;19.10;;;11.82;;
64791;SDS011;51226;47.504;19.074;2023-02-22T20:06:17;32.00;;;19.05;;
64791;SDS011;51226;47.504;19.074;2023-02-22T20:09:21;21.95;;;11.48;;
64791;SDS011;51226;47.504;19.074;2023-02-22T20:12:29;18.50;;;10.60;;
64791;SDS011;51226;47.504;19.074;2023-02-22T20:15:32;19.37;;;12.37;;
64791;SDS011;51226;47.504;19.074;2023-02-22T20:18:35;16.77;;;11.07;;
64791;SDS011;51226;47.504;19.074;2023-02-22T20:21:38;17.98;;;11.32;;
64791;SDS011;51226;47.504;19.074;2023-02-22T20:24:41;20.45;;;12.27;;
64791;SDS011;51226;47.504;19.074;2023-02-22T20:27:44;15.27;;;11.02;;
64791;SDS011;51226;47.504;19.074;2023-02-22T20:33:53;22.77;;;11.77;;
64791;SDS011;51226;47.504;19.074;2023-02-22T20:36:58;16.65;;;11.05;;
64791;SDS011;51226;47.504;19.074;2023-02-22T20:40:02;20.88;;;12.05;;
64791;SDS011;51226;47.504;19.074;2023-02-22T20:43:06;20.42;;;11.95;;
64791;SDS011;51226;47.504;19.074;2023-02-22T20:46:09;18.10;;;11.73;;